Time;durP1;ratioP1;P1;durP2;ratioP2;P2;SDS_P1;SDS_P2;PMS_P1;PMS_P2;Temp;Humidity;BMP_temperature;BMP_pressure;BME280_temperature;BME280_humidity;BME280_pressure;Samples;Min_cycle;Max_cycle;Signal;HPM_P1;HPM_P2
2022/08/06 00:01:42;;;;;;;3.47;1.80;;;15.70;99.90;;;;;;5074935;28;20048;-76
2022/08/06 00:04:08;;;;;;;4.68;2.03;;;15.00;99.90;;;;;;5075242;28;20501;-76
2022/08/06 00:06:33;;;;;;;6.35;2.10;;;15.00;99.90;;;;;;5092835;28;20032;-76
2022/08/06 00:08:59;;;;;;;4.50;2.00;;;15.20;99.90;;;;;;5093576;28;20048;-76
2022/08/06 00:11:25;;;;;;;3.17;1.70;;;14.90;99.90;;;;;;5113446;28;20480;-76
2022/08/06 00:13:50;;;;;;;5.85;2.00;;;15.70;99.90;;;;;;5096437;28;20043;-76
2022/08/06 00:16:16;;;;;;;3.63;2.10;;;14.90;99.90;;;;;;5093444;28;20043;-76
2022/08/06 00:18:42;;;;;;;5.80;1.70;;;14.90;99.90;;;;;;5074884;28;20048;-76
2022/08/06 00:21:08;;;;;;;3.80;1.58;;;14.90;99.90;;;;;;5074588;28;20496;-76
2022/08/06 00:23:35;;;;;;;3.47;1.70;;;14.90;99.90;;;;;;5093211;28;20132;-76
2022/08/06 00:26:00;;;;;;;7.93;2.00;;;14.90;99.90;;;;;;5093201;28;20131;-76
2022/08/06 00:28:26;;;;;;;4.47;1.98;;;14.90;99.90;;;;;;5091580;28;20119;-76
2022/08/06 00:30:52;;;;;;;5.43;1.80;;;14.80;99.90;;;;;;5108072;27;20188;-74
2022/08/06 00:33:17;;;;;;;3.08;1.63;;;14.90;99.90;;;;;;5092684;28;20048;-74
2022/08/06 00:35:44;;;;;;;5.80;1.70;;;14.80;99.90;;;;;;5092595;28;20500;-74
2022/08/06 00:38:10;;;;;;;6.43;2.03;;;14.90;99.90;;;;;;5090967;28;20141;-74
2022/08/06 00:40:36;;;;;;;5.45;1.60;;;14.80;99.90;;;;;;5091451;28;20120;-75
2022/08/06 00:43:04;;;;;;;4.82;1.70;;;14.80;99.90;;;;;;5091590;28;20044;-75
2022/08/06 00:45:33;;;;;;;3.17;1.70;;;14.80;99.90;;;;;;5092529;28;20126;-74
2022/08/06 00:48:00;;;;;;;3.90;1.63;;;14.90;99.90;;;;;;5092887;28;20044;-74
2022/08/06 00:50:26;;;;;;;3.35;1.45;;;14.80;99.90;;;;;;5092432;28;20040;-74
2022/08/06 00:52:52;;;;;;;7.40;1.70;;;14.80;99.90;;;;;;5092709;28;20055;-75
2022/08/06 00:55:17;;;;;;;4.78;1.85;;;14.80;99.90;;;;;;5074358;28;20496;-75
2022/08/06 00:57:43;;;;;;;3.22;1.70;;;14.70;99.90;;;;;;5092562;28;20040;-74
2022/08/06 01:00:09;;;;;;;4.38;1.75;;;14.70;99.90;;;;;;5092604;28;20130;-74
2022/08/06 01:02:35;;;;;;;5.93;1.70;;;14.70;99.90;;;;;;5092317;28;20423;-74
2022/08/06 01:05:01;;;;;;;5.03;1.73;;;14.70;99.90;;;;;;5092437;28;20051;-74
2022/08/06 01:07:27;;;;;;;4.45;1.85;;;15.30;99.90;;;;;;5074115;28;20040;-75
2022/08/06 01:09:52;;;;;;;3.05;1.80;;;15.20;99.90;;;;;;5092586;28;20044;-74
2022/08/06 01:12:18;;;;;;;5.60;1.90;;;14.70;99.90;;;;;;5092463;28;20040;-75
2022/08/06 01:14:44;;;;;;;5.75;2.05;;;14.60;99.90;;;;;;5092210;28;20033;-74
2022/08/06 01:17:26;;;;;;;6.90;2.10;;;14.70;99.90;;;;;;5092323;28;20144;-74
2022/08/06 01:20:12;;;;;;;5.10;1.80;;;15.00;99.90;;;;;;5073944;28;20044;-74
2022/08/06 01:22:57;;;;;;;5.65;2.00;;;14.60;99.90;;;;;;5092406;28;20044;-74
2022/08/06 01:25:53;;;;;;;5.10;1.60;;;14.60;99.90;;;;;;5092239;28;20138;-74
2022/08/06 01:28:27;;;;;;;;;;;14.60;99.90;;;;;;5074708;28;20382;-74
2022/08/06 01:31:01;;;;;;;5.05;1.90;;;14.50;99.90;;;;;;5073662;28;19927;-74
2022/08/06 01:33:41;;;;;;;5.38;1.90;;;14.50;99.90;;;;;;5092047;28;20056;-74
2022/08/06 01:36:11;;;;;;;3.90;1.63;;;14.50;99.90;;;;;;5107833;28;20079;-74
2022/08/06 01:38:42;;;;;;;3.63;1.80;;;14.50;99.90;;;;;;5092985;28;20389;-74
2022/08/06 01:41:12;;;;;;;4.47;1.80;;;14.40;99.90;;;;;;5094777;28;20040;-74
2022/08/06 01:43:40;;;;;;;4.28;1.70;;;14.40;99.90;;;;;;5093820;28;20408;-74
2022/08/06 01:46:08;;;;;;;3.75;1.65;;;14.40;99.90;;;;;;5094972;28;20040;-74
2022/08/06 01:48:36;;;;;;;4.25;1.88;;;14.30;99.90;;;;;;5077456;28;20044;-74
2022/08/06 01:51:04;;;;;;;5.70;2.00;;;14.30;99.90;;;;;;5095474;28;20062;-74
2022/08/06 01:53:40;;;;;;;3.85;1.80;;;15.00;99.90;;;;;;5094008;28;20075;-74
2022/08/06 01:56:08;;;;;;;4.60;1.92;;;14.20;99.90;;;;;;5095576;28;20124;-74
2022/08/06 01:58:38;;;;;;;3.38;1.85;;;14.10;99.90;;;;;;5095156;28;20074;-74
2022/08/06 02:01:08;;;;;;;3.45;1.80;;;14.50;99.90;;;;;;5077413;28;20048;-74
2022/08/06 02:03:51;;;;;;;2.88;1.63;;;14.00;99.90;;;;;;5095390;28;20040;-74
2022/08/06 02:06:23;;;;;;;2.95;1.88;;;14.00;99.90;;;;;;5095443;28;20044;-74
2022/08/06 02:08:50;;;;;;;5.88;1.90;;;14.00;99.90;;;;;;5095520;28;20036;-74
2022/08/06 02:11:17;;;;;;;4.95;1.77;;;14.10;99.90;;;;;;5095155;28;20044;-74
2022/08/06 02:13:44;;;;;;;4.05;1.80;;;14.00;99.90;;;;;;5076936;28;20100;-74
2022/08/06 02:16:11;;;;;;;4.13;2.00;;;14.00;99.90;;;;;;5077195;28;20391;-74
2022/08/06 02:18:41;;;;;;;5.80;2.08;;;14.00;99.90;;;;;;5094891;28;20383;-74
2022/08/06 02:21:12;;;;;;;4.22;1.80;;;14.00;99.90;;;;;;5095047;28;20105;-74
2022/08/06 02:23:39;;;;;;;2.63;1.60;;;14.20;99.90;;;;;;5076759;28;20059;-74
2022/08/06 02:26:05;;;;;;;3.80;1.83;;;14.10;99.90;;;;;;5094915;28;20393;-74
2022/08/06 02:28:33;;;;;;;3.53;1.60;;;14.00;99.90;;;;;;5094919;28;20048;-74
2022/08/06 02:30:58;;;;;;;5.20;1.88;;;14.40;99.90;;;;;;5094420;28;20090;-75
2022/08/06 02:33:25;;;;;;;4.30;1.88;;;14.80;99.90;;;;;;5094623;28;20082;-74
2022/08/06 02:35:57;;;;;;;4.97;2.28;;;14.00;99.90;;;;;;5110323;28;20384;-74
2022/08/06 02:38:28;;;;;;;4.53;1.90;;;14.00;99.90;;;;;;5094826;28;20507;-75
2022/08/06 02:41:01;;;;;;;3.95;1.83;;;14.00;99.90;;;;;;5094627;28;20127;-74
2022/08/06 02:43:35;;;;;;;3.47;2.10;;;13.90;99.90;;;;;;5110304;28;20117;-74
2022/08/06 02:46:09;;;;;;;5.45;2.00;;;13.80;99.90;;;;;;5076203;28;20043;-74
2022/08/06 02:48:56;;;;;;;3.38;2.25;;;13.90;99.90;;;;;;5094656;28;20040;-74
2022/08/06 02:51:37;;;;;;;5.43;2.20;;;13.80;99.90;;;;;;5094207;28;20047;-74
2022/08/06 02:54:12;;;;;;;5.68;2.40;;;13.70;99.90;;;;;;5092637;28;20044;-74
2022/08/06 02:56:42;;;;;;;3.97;2.20;;;13.70;99.90;;;;;;5094156;28;20495;-74
2022/08/06 02:59:09;;;;;;;4.75;2.47;;;13.70;99.90;;;;;;5094543;28;20044;-74
2022/08/06 03:01:41;;;;;;;6.15;2.72;;;13.80;99.90;;;;;;5094025;28;20108;-74
2022/08/06 03:04:08;;;;;;;6.65;2.92;;;14.10;99.90;;;;;;5094036;28;20489;-74
2022/08/06 03:06:36;;;;;;;4.13;2.10;;;13.90;99.90;;;;;;5093987;28;20036;-74
2022/08/06 03:09:04;;;;;;;6.00;2.38;;;13.90;99.90;;;;;;5075955;28;20047;-74
2022/08/06 03:11:33;;;;;;;5.13;2.42;;;13.50;99.90;;;;;;5093848;28;20040;-74
2022/08/06 03:14:01;;;;;;;3.85;2.00;;;13.50;99.90;;;;;;5093928;28;20097;-74
2022/08/06 03:16:29;;;;;;;4.78;2.17;;;13.60;99.90;;;;;;5075790;28;20139;-74
2022/08/06 03:18:55;;;;;;;3.88;1.90;;;13.50;99.90;;;;;;5093734;28;20048;-74
2022/08/06 03:21:22;;;;;;;4.78;1.90;;;13.50;99.90;;;;;;5093698;28;20097;-74
2022/08/06 03:23:52;;;;;;;4.35;1.92;;;13.40;99.90;;;;;;5075240;28;20040;-74
2022/08/06 03:26:18;;;;;;;4.30;2.00;;;13.40;99.90;;;;;;5109200;28;20561;-74
2022/08/06 03:28:45;;;;;;;6.47;1.90;;;13.40;99.90;;;;;;5093913;28;20036;-74
2022/08/06 03:31:12;;;;;;;3.65;1.65;;;13.60;99.90;;;;;;5074990;28;20127;-75
2022/08/06 03:33:38;;;;;;;4.35;2.10;;;13.80;99.90;;;;;;5093443;28;20047;-74
2022/08/06 03:36:05;;;;;;;2.78;1.90;;;13.20;99.90;;;;;;5109043;28;20051;-74
2022/08/06 03:38:40;;;;;;;3.75;2.00;;;13.20;99.90;;;;;;5093488;28;20104;-74
2022/08/06 03:41:08;;;;;;;3.50;1.83;;;13.20;99.90;;;;;;5093550;28;20119;-74
2022/08/06 03:43:34;;;;;;;4.55;1.80;;;13.10;99.90;;;;;;5093267;28;20552;-74
2022/08/06 03:46:03;;;;;;;2.70;1.92;;;13.10;99.90;;;;;;5093235;28;20036;-74
2022/08/06 03:48:34;;;;;;;4.32;2.17;;;13.20;99.90;;;;;;5093279;28;20055;-74
2022/08/06 03:51:03;;;;;;;3.45;2.13;;;13.10;99.90;;;;;;5108718;28;20055;-74
2022/08/06 03:53:34;;;;;;;3.88;2.08;;;13.10;99.90;;;;;;5093063;28;20047;-74
2022/08/06 03:56:01;;;;;;;4.88;2.28;;;13.20;99.90;;;;;;5092487;28;20055;-74
2022/08/06 03:58:28;;;;;;;3.63;2.25;;;13.40;99.90;;;;;;5107076;28;20477;-74
2022/08/06 04:01:02;;;;;;;3.65;2.10;;;13.70;99.90;;;;;;5092209;28;20492;-74
2022/08/06 04:03:28;;;;;;;5.38;2.10;;;13.10;99.90;;;;;;5093106;28;20047;-74
2022/08/06 04:05:55;;;;;;;4.20;2.28;;;13.10;99.90;;;;;;5108818;28;20048;-74
2022/08/06 04:08:22;;;;;;;3.40;2.30;;;13.00;99.90;;;;;;5093013;28;20095;-74
2022/08/06 04:10:50;;;;;;;3.40;2.00;;;13.20;99.90;;;;;;5093044;28;20055;-74
2022/08/06 04:13:21;;;;;;;4.60;2.20;;;13.10;99.90;;;;;;5074736;28;20047;-74
2022/08/06 04:15:48;;;;;;;4.07;2.25;;;13.00;99.90;;;;;;5092729;28;20036;-74
2022/08/06 04:18:16;;;;;;;5.70;2.30;;;13.00;99.90;;;;;;5074949;28;20400;-74
2022/08/06 04:20:46;;;;;;;5.43;2.47;;;13.00;99.90;;;;;;5108315;28;20511;-74
2022/08/06 04:23:12;;;;;;;4.47;2.45;;;13.00;99.90;;;;;;5092947;28;20113;-74
2022/08/06 04:25:49;;;;;;;4.13;2.05;;;13.20;99.90;;;;;;5092526;28;20481;-74
2022/08/06 04:28:16;;;;;;;3.95;2.10;;;12.90;99.90;;;;;;5074785;28;20071;-74
2022/08/06 04:30:44;;;;;;;6.53;2.20;;;13.30;99.90;;;;;;5092173;28;20134;-74
2022/08/06 04:33:13;;;;;;;4.78;2.30;;;13.00;99.90;;;;;;5092434;28;20048;-74
2022/08/06 04:35:40;;;;;;;4.78;2.30;;;12.90;99.90;;;;;;5091485;28;20051;-74
2022/08/06 04:38:07;;;;;;;4.85;2.40;;;13.10;99.90;;;;;;5092773;28;20044;-74
2022/08/06 04:40:33;;;;;;;4.60;2.60;;;13.20;99.90;;;;;;5092485;28;20050;-74
2022/08/06 04:42:59;;;;;;;5.60;2.58;;;13.20;99.90;;;;;;5092764;28;20119;-74
2022/08/06 04:45:26;;;;;;;5.70;2.42;;;13.30;99.90;;;;;;5092268;28;20046;-74
2022/08/06 04:47:52;;;;;;;4.18;2.45;;;13.30;99.90;;;;;;5092470;28;20032;-74
2022/08/06 04:50:18;;;;;;;6.38;2.67;;;13.30;99.90;;;;;;5074368;28;20433;-74
2022/08/06 04:52:44;;;;;;;6.85;2.25;;;13.30;99.90;;;;;;5092695;28;20131;-74
2022/08/06 04:55:09;;;;;;;5.28;2.40;;;13.40;99.90;;;;;;5092651;28;20040;-74
2022/08/06 04:57:35;;;;;;;3.92;2.28;;;13.70;99.90;;;;;;5074047;28;20048;-74
2022/08/06 05:00:01;;;;;;;3.85;2.30;;;13.40;99.90;;;;;;5074743;28;20519;-74
2022/08/06 05:02:27;;;;;;;4.15;2.33;;;13.40;99.90;;;;;;5092137;28;20067;-74
2022/08/06 05:04:57;;;;;;;4.15;2.13;;;13.50;99.90;;;;;;5074518;28;20043;-74
2022/08/06 05:07:24;;;;;;;6.78;2.35;;;13.90;99.90;;;;;;5074239;28;20060;-74
2022/08/06 05:09:50;;;;;;;6.80;2.15;;;14.20;99.90;;;;;;5092356;28;20055;-76
2022/08/06 05:12:23;;;;;;;7.32;2.35;;;13.40;99.90;;;;;;5074133;28;20056;-75
2022/08/06 05:14:54;;;;;;;3.20;2.08;;;13.40;99.90;;;;;;5093379;28;20036;-74
2022/08/06 05:17:23;;;;;;;4.57;2.15;;;13.50;99.90;;;;;;5096163;28;20040;-75
2022/08/06 05:19:57;;;;;;;4.43;2.35;;;13.50;99.90;;;;;;5096220;28;20120;-74
2022/08/06 05:22:23;;;;;;;4.43;2.13;;;13.40;99.90;;;;;;5111720;28;20530;-75
2022/08/06 05:24:52;;;;;;;3.35;2.03;;;13.40;99.90;;;;;;5096149;28;20392;-74
2022/08/06 05:27:18;;;;;;;6.47;2.50;;;13.50;99.90;;;;;;5096021;28;20179;-74
2022/08/06 05:29:44;;;;;;;3.53;2.30;;;14.00;99.90;;;;;;5095905;28;20028;-75
2022/08/06 05:32:10;;;;;;;4.63;2.55;;;14.00;99.90;;;;;;5095557;28;20052;-74
2022/08/06 05:34:36;;;;;;;5.35;2.50;;;13.40;99.90;;;;;;5095884;28;20396;-75
2022/08/06 05:37:01;;;;;;;5.43;2.40;;;13.20;99.90;;;;;;5095954;28;20036;-75
2022/08/06 05:39:27;;;;;;;5.10;2.20;;;13.20;99.90;;;;;;5095900;28;20125;-75
2022/08/06 05:41:53;;;;;;;5.15;2.20;;;13.50;99.90;;;;;;5093814;28;20456;-75
2022/08/06 05:44:18;;;;;;;4.03;2.10;;;13.30;99.90;;;;;;5095610;28;20089;-74
2022/08/06 05:46:55;;;;;;;4.93;2.70;;;13.40;99.90;;;;;;5095836;28;20109;-75
2022/08/06 05:49:39;;;;;;;3.83;2.30;;;13.40;99.90;;;;;;5077337;28;20468;-75
2022/08/06 05:52:21;;;;;;;4.97;2.00;;;13.50;99.90;;;;;;5095281;28;20044;-74
2022/08/06 05:54:52;;;;;;;3.33;2.13;;;13.60;99.90;;;;;;5077354;28;20115;-75
2022/08/06 05:57:45;;;;;;;4.82;2.10;;;13.80;99.90;;;;;;5095334;28;20167;-75
2022/08/06 06:00:15;;;;;;;3.65;2.00;;;13.70;99.90;;;;;;5094230;28;20058;-74
2022/08/06 06:02:45;;;;;;;3.05;2.10;;;13.80;99.90;;;;;;5094970;28;20043;-75
2022/08/06 06:05:12;;;;;;;5.18;2.00;;;14.00;99.90;;;;;;5095332;28;20044;-75
2022/08/06 06:07:38;;;;;;;5.18;2.10;;;13.90;99.90;;;;;;5095114;28;20035;-75
2022/08/06 06:10:06;;;;;;;4.93;2.15;;;14.00;99.90;;;;;;5077036;28;20055;-75
2022/08/06 06:12:33;;;;;;;4.53;2.10;;;14.00;99.90;;;;;;5094755;28;20046;-75
2022/08/06 06:15:00;;;;;;;5.32;2.53;;;14.00;99.90;;;;;;5095164;28;20051;-75
2022/08/06 06:18:03;;;;;;;5.45;2.15;;;14.00;99.90;;;;;;5095029;28;20090;-75
2022/08/06 06:20:57;;;;;;;5.00;2.13;;;14.10;99.90;;;;;;5095162;28;20189;-75
2022/08/06 06:23:38;;;;;;;3.80;2.30;;;14.30;99.90;;;;;;5060341;28;20113;-74
2022/08/06 06:26:07;;;;;;;5.05;2.35;;;14.70;99.90;;;;;;5076614;28;20407;-76
2022/08/06 06:28:47;;;;;;;4.95;2.53;;;14.30;99.90;;;;;;5076649;28;20416;-75
2022/08/06 06:31:25;;;;;;;3.15;2.03;;;14.30;99.90;;;;;;5094509;28;20086;-75
2022/08/06 06:33:57;;;;;;;5.90;2.10;;;14.70;99.90;;;;;;5093649;28;20052;-75
2022/08/06 06:36:37;;;;;;;5.43;1.90;;;14.50;99.90;;;;;;5094687;28;20048;-75
2022/08/06 06:39:36;;;;;;;5.13;2.20;;;14.70;99.90;;;;;;5076067;28;20122;-75
2022/08/06 06:42:11;;;;;;;5.80;1.98;;;14.90;99.90;;;;;;5067538;28;20091;-79
2022/08/06 06:44:44;;;;;;;6.57;2.10;;;15.10;99.90;;;;;;5076765;28;20044;-75
2022/08/06 06:47:18;;;;;;;3.38;1.67;;;15.40;99.90;;;;;;5094436;28;20127;-76
2022/08/06 06:49:52;;;;;;;4.35;1.70;;;15.50;99.90;;;;;;5094405;28;20078;-76
2022/08/06 06:52:33;;;;;;;3.83;1.45;;;16.20;99.90;;;;;;5094331;28;20063;-74
2022/08/06 06:55:09;;;;;;;5.25;1.70;;;15.70;99.90;;;;;;5094422;28;20070;-76
2022/08/06 06:57:39;;;;;;;3.83;1.60;;;15.70;99.90;;;;;;5094223;28;20079;-75
2022/08/06 07:00:06;;;;;;;6.10;1.70;;;15.90;99.90;;;;;;5075951;28;20048;-76
2022/08/06 07:02:35;;;;;;;4.15;1.50;;;15.80;99.90;;;;;;5093816;28;20101;-74
2022/08/06 07:05:03;;;;;;;4.68;1.65;;;15.70;99.90;;;;;;5094627;28;20036;-76
2022/08/06 07:07:32;;;;;;;4.40;2.00;;;15.70;99.90;;;;;;5093117;28;20096;-75
2022/08/06 07:09:59;;;;;;;5.85;1.98;;;15.80;99.90;;;;;;5093755;28;20069;-75
2022/08/06 07:12:28;;;;;;;3.72;1.70;;;16.10;99.90;;;;;;5093753;28;20040;-75
2022/08/06 07:14:55;;;;;;;3.22;1.50;;;15.90;99.90;;;;;;5093701;28;20115;-74
2022/08/06 07:17:23;;;;;;;2.70;1.60;;;16.00;99.90;;;;;;5092530;28;20050;-75
2022/08/06 07:19:52;;;;;;;3.83;1.50;;;16.40;99.90;;;;;;5093877;28;20047;-74
2022/08/06 07:22:20;;;;;;;4.20;1.50;;;16.30;99.90;;;;;;5093887;28;20447;-75
2022/08/06 07:24:46;;;;;;;5.72;1.63;;;16.20;99.90;;;;;;5093679;28;20061;-75
2022/08/06 07:27:13;;;;;;;7.25;1.50;;;16.10;99.90;;;;;;5075501;28;20079;-76
2022/08/06 07:29:41;;;;;;;3.45;1.30;;;16.30;99.90;;;;;;5075418;28;20043;-75
2022/08/06 07:32:08;;;;;;;3.72;1.40;;;16.50;99.90;;;;;;5093047;28;20339;-76
2022/08/06 07:34:35;;;;;;;4.72;1.40;;;16.50;99.90;;;;;;5108191;28;20091;-75
2022/08/06 07:37:02;;;;;;;3.20;1.30;;;16.50;99.90;;;;;;5074587;28;20040;-75
2022/08/06 07:39:32;;;;;;;3.55;1.10;;;16.50;99.90;;;;;;5093524;28;20326;-75
2022/08/06 07:42:05;;;;;;;2.42;1.20;;;16.90;99.90;;;;;;5093293;28;20040;-76
2022/08/06 07:44:34;;;;;;;2.88;1.20;;;16.70;99.90;;;;;;5074940;28;20079;-76
2022/08/06 07:47:02;;;;;;;4.70;1.30;;;16.80;99.90;;;;;;5075011;28;20044;-76
2022/08/06 07:49:36;;;;;;;4.93;1.40;;;16.90;99.90;;;;;;5075111;28;20040;-76
2022/08/06 07:52:03;;;;;;;3.70;1.20;;;16.90;99.90;;;;;;5075116;28;20048;-76
2022/08/06 07:54:30;;;;;;;2.38;1.40;;;17.00;99.90;;;;;;5109200;28;20097;-76
2022/08/06 07:56:57;;;;;;;6.68;1.33;;;17.10;99.90;;;;;;5108524;28;20549;-76
2022/08/06 07:59:24;;;;;;;3.05;1.10;;;17.20;99.90;;;;;;5093098;28;20090;-76
2022/08/06 08:01:50;;;;;;;4.93;1.20;;;17.30;99.90;;;;;;5074569;28;20139;-76
2022/08/06 08:07:03;;;;;;;4.15;1.17;;;17.50;99.90;;;;;;5093025;28;20119;-76
2022/08/06 08:09:30;;;;;;;2.75;1.20;;;17.70;99.90;;;;;;5092871;28;20047;-76
2022/08/06 08:11:57;;;;;;;3.40;1.10;;;17.90;99.90;;;;;;5092839;28;20048;-76
2022/08/06 08:14:23;;;;;;;2.85;1.10;;;18.10;99.90;;;;;;5092818;28;20086;-76
2022/08/06 08:16:50;;;;;;;3.92;1.33;;;18.30;99.90;;;;;;5092829;28;20044;-76
2022/08/06 08:19:23;;;;;;;2.75;1.20;;;18.40;99.90;;;;;;5092861;28;20044;-76
2022/08/06 08:21:53;;;;;;;2.38;1.10;;;18.50;99.90;;;;;;5092880;28;20047;-76
2022/08/06 08:24:18;;;;;;;6.18;1.98;;;18.70;99.90;;;;;;5108379;28;20126;-76
2022/08/06 08:26:44;;;;;;;4.18;1.50;;;18.90;99.90;;;;;;5092875;28;20182;-76
2022/08/06 08:29:11;;;;;;;4.03;1.30;;;19.00;99.90;;;;;;5093489;28;20040;-76
2022/08/06 08:31:37;;;;;;;4.15;1.30;;;19.10;99.90;;;;;;5108127;28;20108;-76
2022/08/06 08:34:03;;;;;;;7.97;1.70;;;19.30;99.90;;;;;;5092316;28;20469;-77
2022/08/06 08:36:28;;;;;;;5.03;1.63;;;19.50;99.90;;;;;;5092423;28;20185;-76
2022/08/06 08:38:57;;;;;;;3.63;1.40;;;19.50;99.90;;;;;;5092861;28;20043;-76
2022/08/06 08:41:27;;;;;;;3.97;1.30;;;19.50;99.90;;;;;;5108262;28;20051;-76
2022/08/06 08:44:00;;;;;;;3.35;1.20;;;19.50;99.90;;;;;;5092489;28;20040;-76
2022/08/06 08:46:27;;;;;;;3.67;1.40;;;19.40;99.90;;;;;;5092407;28;20499;-77
2022/08/06 08:48:57;;;;;;;3.30;1.20;;;19.20;99.90;;;;;;5095996;28;20036;-74
2022/08/06 08:51:25;;;;;;;4.05;1.27;;;19.00;99.90;;;;;;5096772;28;20048;-74
2022/08/06 08:53:55;;;;;;;4.50;1.40;;;18.80;99.90;;;;;;5078590;28;20044;-74
2022/08/06 08:56:22;;;;;;;2.28;1.40;;;18.60;99.90;;;;;;5097152;28;20031;-74
2022/08/06 08:58:48;;;;;;;3.67;1.60;;;18.50;99.90;;;;;;5072611;28;20459;-74
2022/08/06 09:01:15;;;;;;;5.30;1.50;;;18.40;99.90;;;;;;5098143;28;20451;-74
2022/08/06 09:03:41;;;;;;;3.63;1.40;;;18.50;99.90;;;;;;5116921;28;20062;-74
2022/08/06 09:06:08;;;;;;;5.90;1.85;;;18.30;99.90;;;;;;5116651;28;20483;-74
2022/08/06 09:08:36;;;;;;;3.15;1.45;;;18.40;99.90;;;;;;5117131;28;20055;-75
2022/08/06 09:11:02;;;;;;;2.70;1.50;;;18.40;99.90;;;;;;5116637;28;20083;-76
2022/08/06 09:13:28;;;;;;;4.28;1.67;;;18.50;99.90;;;;;;5116795;28;20065;-76
2022/08/06 09:15:55;;;;;;;4.32;1.75;;;18.60;99.90;;;;;;5098330;28;20440;-75
2022/08/06 09:18:23;;;;;;;4.68;1.75;;;18.70;99.90;;;;;;5117055;28;20043;-76
2022/08/06 09:20:48;;;;;;;5.05;1.98;;;18.70;99.90;;;;;;5116364;28;20093;-75
2022/08/06 09:23:18;;;;;;;4.38;1.70;;;18.80;99.90;;;;;;5116842;28;20047;-75
2022/08/06 09:25:53;;;;;;;7.43;2.05;;;19.00;99.90;;;;;;5116308;28;20083;-77
2022/08/06 09:28:34;;;;;;;;;;;19.20;99.90;;;;;;5116487;28;20452;-75
2022/08/06 09:31:11;;;;;;;4.53;1.90;;;19.30;99.90;;;;;;5096558;28;20257;-77
2022/08/06 09:33:38;;;;;;;4.28;1.80;;;19.60;99.90;;;;;;5078672;28;20062;-75
2022/08/06 09:36:09;;;;;;;7.28;2.00;;;19.90;99.90;;;;;;5095887;28;20044;-76
2022/08/06 09:38:59;;;;;;;4.32;1.60;;;20.10;99.90;;;;;;5096733;28;20139;-75
2022/08/06 09:41:28;;;;;;;3.58;1.70;;;20.40;99.90;;;;;;5077919;28;20044;-76
2022/08/06 09:43:56;;;;;;;4.45;1.77;;;20.60;99.90;;;;;;5111362;28;20072;-76
2022/08/06 09:46:41;;;;;;;5.38;1.67;;;21.00;99.90;;;;;;5096011;28;20102;-76
2022/08/06 09:49:10;;;;;;;3.08;1.60;;;21.40;99.90;;;;;;5096002;28;20115;-76
2022/08/06 09:51:37;;;;;;;4.97;1.80;;;21.70;99.90;;;;;;5076996;28;20519;-76
2022/08/06 09:54:06;;;;;;;4.15;1.70;;;21.70;99.90;;;;;;5095443;28;20427;-76
2022/08/06 09:56:32;;;;;;;3.42;1.92;;;21.80;99.90;;;;;;5095388;28;20040;-76
2022/08/06 09:59:07;;;;;;;5.05;2.20;;;22.10;99.90;;;;;;5093163;28;20040;-77
2022/08/06 10:01:43;;;;;;;3.38;2.00;;;22.20;98.70;;;;;;5108628;28;20108;-77
2022/08/06 10:04:26;;;;;;;4.47;2.03;;;23.40;98.20;;;;;;5094879;28;20504;-76
2022/08/06 10:07:01;;;;;;;4.75;1.90;;;25.60;96.60;;;;;;5095135;28;20099;-77
2022/08/06 10:09:27;;;;;;;3.22;2.00;;;28.30;91.30;;;;;;5111385;28;20058;-77
2022/08/06 10:11:54;;;;;;;4.38;1.90;;;30.70;88.50;;;;;;5094818;28;20040;-77
2022/08/06 10:14:29;;;;;;;3.70;1.75;;;32.40;85.70;;;;;;5110843;28;20127;-77
2022/08/06 10:17:07;;;;;;;3.50;1.90;;;33.40;81.90;;;;;;5095296;28;20048;-77
2022/08/06 10:19:34;;;;;;;2.75;1.65;;;35.30;76.30;;;;;;5110961;28;20119;-78
2022/08/06 10:22:17;;;;;;;3.97;1.60;;;36.20;75.90;;;;;;5115444;28;20046;-75
2022/08/06 10:24:43;;;;;;;4.20;2.00;;;38.10;72.80;;;;;;5115058;28;20083;-76
2022/08/06 10:27:14;;;;;;;4.40;1.70;;;39.40;67.60;;;;;;5115512;28;20060;-77
2022/08/06 10:29:57;;;;;;;2.60;1.60;;;40.60;64.90;;;;;;5081556;28;20120;-76
2022/08/06 10:32:31;;;;;;;2.92;1.80;;;41.90;60.50;;;;;;5096537;28;20048;-77
2022/08/06 10:35:00;;;;;;;3.40;1.60;;;42.70;60.10;;;;;;5115285;28;20043;-77
2022/08/06 10:37:26;;;;;;;4.13;1.73;;;43.30;58.60;;;;;;5115190;28;20039;-77
2022/08/06 10:39:56;;;;;;;5.20;1.50;;;44.40;58.00;;;;;;5114870;28;20043;-77
2022/08/06 10:42:23;;;;;;;2.72;1.50;;;44.90;55.50;;;;;;5114911;28;20044;-77
2022/08/06 10:44:50;;;;;;;3.28;1.70;;;42.70;55.00;;;;;;5114735;28;20046;-75
2022/08/06 10:47:16;;;;;;;3.40;1.65;;;39.60;55.60;;;;;;5114948;28;20043;-76
2022/08/06 10:49:43;;;;;;;5.95;1.75;;;36.70;56.80;;;;;;5114847;28;20050;-76
2022/08/06 10:52:11;;;;;;;3.20;1.77;;;34.60;58.20;;;;;;5096270;28;20109;-75
2022/08/06 10:54:37;;;;;;;2.85;1.80;;;32.80;59.40;;;;;;5114129;28;20543;-76
2022/08/06 10:57:03;;;;;;;3.08;1.80;;;32.50;60.00;;;;;;5112525;28;20039;-76
2022/08/06 10:59:28;;;;;;;2.80;1.67;;;33.90;59.40;;;;;;5095898;28;20178;-76
2022/08/06 11:02:21;;;;;;;3.85;1.70;;;35.50;57.80;;;;;;5094133;28;20044;-76
2022/08/06 11:04:52;;;;;;;4.00;1.75;;;35.60;55.70;;;;;;5093836;28;20047;-76
2022/08/06 11:07:58;;;;;;;2.90;1.65;;;34.90;56.20;;;;;;5094141;28;20126;-76
2022/08/06 11:10:57;;;;;;;2.60;1.80;;;34.10;56.80;;;;;;5093103;28;20044;-76
2022/08/06 11:13:33;;;;;;;2.90;1.90;;;33.60;56.60;;;;;;5093744;28;20060;-76
2022/08/06 11:15:59;;;;;;;3.00;1.98;;;32.90;57.50;;;;;;5093613;28;20074;-75
2022/08/06 11:18:25;;;;;;;3.60;1.90;;;32.50;57.50;;;;;;5093770;28;20039;-76
2022/08/06 11:20:58;;;;;;;2.55;1.73;;;33.10;57.20;;;;;;5093502;28;20405;-76
2022/08/06 11:23:26;;;;;;;2.80;2.05;;;33.90;55.60;;;;;;5092623;28;20066;-76
2022/08/06 11:26:00;;;;;;;3.55;2.10;;;35.80;54.90;;;;;;5075383;28;20047;-76
2022/08/06 11:28:32;;;;;;;3.15;2.10;;;36.50;53.70;;;;;;5094848;28;20511;-76
2022/08/06 11:31:03;;;;;;;2.90;1.92;;;35.30;54.10;;;;;;5094561;28;20064;-75
2022/08/06 11:33:35;;;;;;;3.58;2.08;;;34.20;54.50;;;;;;5113602;28;20054;-76
2022/08/06 11:36:14;;;;;;;3.75;1.90;;;32.70;55.20;;;;;;5113802;28;20046;-76
2022/08/06 11:39:00;;;;;;;3.15;2.15;;;32.30;56.20;;;;;;5113855;28;20039;-76
2022/08/06 11:41:28;;;;;;;4.80;2.45;;;32.90;57.20;;;;;;5113470;28;20472;-77
2022/08/06 11:43:53;;;;;;;3.08;2.25;;;34.70;57.70;;;;;;5113805;28;20062;-75
2022/08/06 11:46:39;;;;;;;5.57;2.60;;;37.70;57.40;;;;;;5095210;28;20044;-75
2022/08/06 11:49:20;;;;;;;3.70;2.33;;;40.90;55.30;;;;;;5092983;28;20040;-76
2022/08/06 11:51:56;;;;;;;4.05;2.33;;;43.20;54.80;;;;;;5074843;28;20083;-76
2022/08/06 11:54:54;;;;;;;3.35;2.30;;;44.00;52.40;;;;;;5092486;28;20496;-76
2022/08/06 11:57:21;;;;;;;3.42;2.40;;;44.20;52.50;;;;;;5082325;28;20058;-76
2022/08/06 12:00:03;;;;;;;3.42;2.40;;;44.50;51.90;;;;;;5090283;28;20464;-75
2022/08/06 12:02:41;;;;;;;3.75;2.50;;;44.40;50.80;;;;;;5090941;28;20043;-76
2022/08/06 12:05:27;;;;;;;4.28;2.60;;;44.10;51.10;;;;;;5092833;28;20119;-76
2022/08/06 12:08:19;;;;;;;3.38;2.40;;;44.20;50.10;;;;;;5081800;28;20048;-75
2022/08/06 12:11:23;;;;;;;4.03;2.60;;;42.40;50.00;;;;;;5092181;28;20047;-75
2022/08/06 12:13:49;;;;;;;3.30;2.60;;;40.10;50.30;;;;;;5092699;28;20044;-77
2022/08/06 12:16:33;;;;;;;4.82;2.60;;;37.80;51.60;;;;;;5092591;28;20281;-76
2022/08/06 12:19:00;;;;;;;4.53;2.72;;;36.90;52.50;;;;;;5092757;28;20124;-75
2022/08/06 12:21:26;;;;;;;4.28;2.50;;;36.60;53.40;;;;;;5108325;28;20047;-76
2022/08/06 12:23:53;;;;;;;5.00;2.55;;;36.70;53.00;;;;;;5092696;28;20047;-77
2022/08/06 12:26:20;;;;;;;3.70;2.60;;;37.20;52.50;;;;;;5092752;28;20048;-77
2022/08/06 12:28:46;;;;;;;4.57;2.63;;;37.30;51.70;;;;;;5074666;28;20040;-78
2022/08/06 12:31:12;;;;;;;4.45;2.40;;;36.70;51.30;;;;;;5073922;28;20071;-77
2022/08/06 12:33:42;;;;;;;5.43;2.78;;;36.10;51.70;;;;;;5092630;28;20075;-75
2022/08/06 12:36:09;;;;;;;3.75;2.70;;;34.80;50.60;;;;;;5089743;28;20040;-76
2022/08/06 12:38:36;;;;;;;5.47;2.70;;;33.50;51.10;;;;;;5092520;28;20040;-76
2022/08/06 12:41:08;;;;;;;5.35;2.80;;;32.70;52.40;;;;;;5074316;28;20048;-75
2022/08/06 12:43:35;;;;;;;3.92;2.70;;;31.90;52.10;;;;;;5092274;28;20515;-75
2022/08/06 12:46:04;;;;;;;3.53;2.95;;;31.00;52.30;;;;;;5091047;28;20181;-75
2022/08/06 12:48:31;;;;;;;4.35;2.83;;;30.70;53.10;;;;;;5092173;28;20066;-75
2022/08/06 12:51:06;;;;;;;4.53;2.88;;;30.30;54.50;;;;;;5108037;28;20437;-75
2022/08/06 12:53:32;;;;;;;3.63;2.70;;;29.90;55.10;;;;;;5092427;28;20127;-75
2022/08/06 12:55:58;;;;;;;4.93;2.90;;;29.50;55.90;;;;;;5092418;28;20438;-75
2022/08/06 12:58:37;;;;;;;5.40;3.05;;;29.20;55.70;;;;;;5092332;28;20044;-75
2022/08/06 13:01:05;;;;;;;4.10;2.88;;;28.70;55.90;;;;;;5092369;28;20040;-75
2022/08/06 13:03:32;;;;;;;5.15;3.10;;;28.30;55.80;;;;;;5092122;28;20042;-75
2022/08/06 13:06:00;;;;;;;6.25;3.30;;;27.90;56.50;;;;;;5092544;28;20399;-75
2022/08/06 13:08:27;;;;;;;4.88;2.70;;;27.90;57.50;;;;;;5092602;28;20036;-75